Sao Jorge — CSIA — position and weather

sailwx.info

Track history (hours):
 
Tides and Currents Weather Stations Pressure Air Temp Water Temp Dewpoint Dewpoint Depression Visibility Wind Speed Wind Dir Waves Ship Positions

Sao Jorge

Last reported at 2018-Jan-22 08:30 UTC. Time now 2018-Jan-22 08:48 UTC.
Position N 38°40' W 009°08'.

Length 59 m; draft 24.8 m.

Type: Passenger vessel. MMSI: 263701790.

Date/timePositionNaut miles runAvg speedWind from/ knotsBaromVisibWave heightAir tempDewpointWater temp
2018-Jan-22 08:30N 38°40' W 009°08'1 1.7
2018-Jan-22 08:01N 38°40' W 009°07'1 2.5
2018-Jan-22 07:30N 38°41' W 009°08'3 5.7
2018-Jan-22 07:00N 38°39' W 009°05'2 4.8
2018-Jan-22 06:30N 38°40' W 009°07'1 2.7
2018-Jan-22 06:00N 38°41' W 009°09'  
2018-Jan-19 21:38N 38°41' W 009°09'0 0.0
2018-Jan-19 21:30N 38°41' W 009°09'4 7.7
2018-Jan-19 21:00N 38°39' W 009°05'4 8.4
2018-Jan-19 20:30N 38°42' W 009°08'4 8.0
2018-Jan-19 19:59N 38°39' W 009°05'3 6.9
2018-Jan-19 19:30N 38°41' W 009°08'2 4.1
2018-Jan-19 19:01N 38°40' W 009°06'2 3.1
2018-Jan-19 18:30N 38°41' W 009°08'1 2.9
2018-Jan-19 18:00N 38°42' W 009°08'1 2.2
2018-Jan-19 17:30N 38°41' W 009°09'0 0.0
2018-Jan-19 10:50N 38°41' W 009°09'0 0.0
2018-Jan-19 10:30N 38°41' W 009°09'0 0.0
2018-Jan-19 10:01N 38°41' W 009°09'0 0.0
2018-Jan-19 09:31N 38°41' W 009°09'0 0.0
2018-Jan-19 09:00N 38°41' W 009°09'0 0.0
2018-Jan-19 08:30N 38°41' W 009°09'0 0.0
2018-Jan-19 08:00N 38°41' W 009°09'0 0.0
2018-Jan-19 07:30N 38°41' W 009°09'0 0.0
2018-Jan-19 07:00N 38°41' W 009°09'0 0.0
2018-Jan-19 06:30N 38°41' W 009°09'0 0.0
2018-Jan-19 06:00N 38°41' W 009°09'0 0.0
2018-Jan-18 17:22N 38°41' W 009°09'0 0.7
2018-Jan-18 17:00N 38°41' W 009°09'0 0.0
2018-Jan-18 16:26N 38°41' W 009°09'0 0.0
2018-Jan-18 15:52N 38°41' W 009°09'0 0.0
2018-Jan-18 15:29N 38°41' W 009°09'0 0.0
2018-Jan-18 15:00N 38°41' W 009°09'0 0.0
2018-Jan-18 14:30N 38°41' W 009°09'0 0.0
2018-Jan-18 14:00N 38°41' W 009°09'0 0.0
2018-Jan-18 13:31N 38°41' W 009°09'0 0.0
2018-Jan-18 11:19N 38°41' W 009°09'0 0.0
2018-Jan-18 11:00N 38°41' W 009°09'0 0.0
2018-Jan-18 10:29N 38°41' W 009°09'0 0.0
2018-Jan-18 10:00N 38°41' W 009°09'0 0.1
2018-Jan-18 09:30N 38°41' W 009°09'0 0.4
2018-Jan-18 09:00N 38°41' W 009°09'0 0.3
2018-Jan-18 08:30N 38°42' W 009°09'0 0.8
2018-Jan-18 08:01N 38°42' W 009°09'0 0.8
2018-Jan-18 07:31N 38°42' W 009°09'1 2.4
2018-Jan-18 07:00N 38°41' W 009°09'0 0.0
2018-Jan-18 06:30N 38°41' W 009°09'  
2018-Jan-12 15:00N 38°41' W 009°09'0 0.0
2018-Jan-12 14:30N 38°41' W 009°09'0 0.0
2018-Jan-12 14:00N 38°41' W 009°09'0 0.0
2018-Jan-12 13:30N 38°41' W 009°09'0 0.0
2018-Jan-12 13:00N 38°41' W 009°09'1 1.3
2018-Jan-12 12:30N 38°42' W 009°09'0 0.3
2018-Jan-12 12:00N 38°42' W 009°09'1 1.6
2018-Jan-12 11:30N 38°41' W 009°09'1 1.7
2018-Jan-12 11:00N 38°42' W 009°09'1 1.6
2018-Jan-12 10:30N 38°41' W 009°09'0 0.0
2018-Jan-12 10:00N 38°41' W 009°09'0 0.0
2018-Jan-12 09:30N 38°41' W 009°09'0 0.7
2018-Jan-12 08:59N 38°42' W 009°09'  
Track history (hours):
 
Tides and Currents Weather Stations Pressure Air Temp Water Temp Dewpoint Dewpoint Depression Visibility Wind Speed Wind Dir Waves Ship Positions

Sao Jorge

Last reported at 2018-Jan-22 08:30 UTC. Time now 2018-Jan-22 08:48 UTC.
Position N 38°40' W 009°08'.

Length 59 m; draft 24.8 m.

Type: Passenger vessel. MMSI: 263701790.

Date/timePositionNaut miles runAvg speedWind from/ knotsBaromVisibWave heightAir tempDewpointWater temp
2018-Jan-22 08:30N 38°40' W 009°08'1 1.7
2018-Jan-22 08:01N 38°40' W 009°07'1 2.5
2018-Jan-22 07:30N 38°41' W 009°08'3 5.7
2018-Jan-22 07:00N 38°39' W 009°05'2 4.8
2018-Jan-22 06:30N 38°40' W 009°07'1 2.7
2018-Jan-22 06:00N 38°41' W 009°09'  
2018-Jan-19 21:38N 38°41' W 009°09'0 0.0
2018-Jan-19 21:30N 38°41' W 009°09'4 7.7
2018-Jan-19 21:00N 38°39' W 009°05'4 8.4
2018-Jan-19 20:30N 38°42' W 009°08'4 8.0
2018-Jan-19 19:59N 38°39' W 009°05'3 6.9
2018-Jan-19 19:30N 38°41' W 009°08'2 4.1
2018-Jan-19 19:01N 38°40' W 009°06'2 3.1
2018-Jan-19 18:30N 38°41' W 009°08'1 2.9
2018-Jan-19 18:00N 38°42' W 009°08'1 2.2
2018-Jan-19 17:30N 38°41' W 009°09'0 0.0
2018-Jan-19 10:50N 38°41' W 009°09'0 0.0
2018-Jan-19 10:30N 38°41' W 009°09'0 0.0
2018-Jan-19 10:01N 38°41' W 009°09'0 0.0
2018-Jan-19 09:31N 38°41' W 009°09'0 0.0
2018-Jan-19 09:00N 38°41' W 009°09'0 0.0
2018-Jan-19 08:30N 38°41' W 009°09'0 0.0
2018-Jan-19 08:00N 38°41' W 009°09'0 0.0
2018-Jan-19 07:30N 38°41' W 009°09'0 0.0
2018-Jan-19 07:00N 38°41' W 009°09'0 0.0
2018-Jan-19 06:30N 38°41' W 009°09'0 0.0
2018-Jan-19 06:00N 38°41' W 009°09'0 0.0
2018-Jan-18 17:22N 38°41' W 009°09'0 0.7
2018-Jan-18 17:00N 38°41' W 009°09'0 0.0
2018-Jan-18 16:26N 38°41' W 009°09'0 0.0
2018-Jan-18 15:52N 38°41' W 009°09'0 0.0
2018-Jan-18 15:29N 38°41' W 009°09'0 0.0
2018-Jan-18 15:00N 38°41' W 009°09'0 0.0
2018-Jan-18 14:30N 38°41' W 009°09'0 0.0
2018-Jan-18 14:00N 38°41' W 009°09'0 0.0
2018-Jan-18 13:31N 38°41' W 009°09'0 0.0
2018-Jan-18 11:19N 38°41' W 009°09'0 0.0
2018-Jan-18 11:00N 38°41' W 009°09'0 0.0
2018-Jan-18 10:29N 38°41' W 009°09'0 0.0
2018-Jan-18 10:00N 38°41' W 009°09'0 0.1
2018-Jan-18 09:30N 38°41' W 009°09'0 0.4
2018-Jan-18 09:00N 38°41' W 009°09'0 0.3
2018-Jan-18 08:30N 38°42' W 009°09'0 0.8
2018-Jan-18 08:01N 38°42' W 009°09'0 0.8
2018-Jan-18 07:31N 38°42' W 009°09'1 2.4
2018-Jan-18 07:00N 38°41' W 009°09'0 0.0
2018-Jan-18 06:30N 38°41' W 009°09'  
2018-Jan-12 15:00N 38°41' W 009°09'0 0.0
2018-Jan-12 14:30N 38°41' W 009°09'0 0.0
2018-Jan-12 14:00N 38°41' W 009°09'0 0.0
2018-Jan-12 13:30N 38°41' W 009°09'0 0.0
2018-Jan-12 13:00N 38°41' W 009°09'1 1.3
2018-Jan-12 12:30N 38°42' W 009°09'0 0.3
2018-Jan-12 12:00N 38°42' W 009°09'1 1.6
2018-Jan-12 11:30N 38°41' W 009°09'1 1.7
2018-Jan-12 11:00N 38°42' W 009°09'1 1.6
2018-Jan-12 10:30N 38°41' W 009°09'0 0.0
2018-Jan-12 10:00N 38°41' W 009°09'0 0.0
2018-Jan-12 09:30N 38°41' W 009°09'0 0.7
2018-Jan-12 08:59N 38°42' W 009°09'  

Dump ship's entire track history